Beals, Maine
Current Conditions -  °F | °C
As of 6:55 PM on Thursday 18 Dec 2014 (Local Time) from KBHB Reporting Station
Few Clouds Few Clouds  
Wind Chill: 23°   Ceiling: Unl
Heat Index: 30°   Visibility: 10mi
Dew Point: 28°   Wind: 8mph
Humidity: 93%   Direction: 310°NW
Pressure: 29.69"   Gusts: NA
Location:  44.52°N, 67.62°W
Report Text: KBHB 182355Z AUTO 31007KT 10SM FEW023 M01/M02 A2969 RMK AO1 10010 21010 400401010 52020
Loading
Personal Weather Stations






























Interactive Weather Map New forecast layout! Learn more

10-Day Weather Forecast

Advertisements
Track Severe Weather on mobile